sensor_id;sensor_type;location;lat;lon;timestamp;pressure;altitude;pressure_sealevel;temperature;humidity
68891;BME280;55932;48.702;8.884;2024-03-23T00:57:41;95470;;;7.9;69
68891;BME280;55932;48.702;8.884;2024-03-23T01:02:35;95450;;;8.3;68.5
68891;BME280;55932;48.702;8.884;2024-03-23T01:05:05;95450;;;8.5;68.5
68891;BME280;55932;48.702;8.884;2024-03-23T01:10:06;95430;;;8.4;68.5
68891;BME280;55932;48.702;8.884;2024-03-23T01:12:30;95430;;;8.5;68.5
68891;BME280;55932;48.702;8.884;2024-03-23T01:15:02;95440;;;8.5;68.5
68891;BME280;55932;48.702;8.884;2024-03-23T01:17:32;95430;;;8.5;68.5
68891;BME280;55932;48.702;8.884;2024-03-23T01:20:03;95430;;;8.9;68.5
68891;BME280;55932;48.702;8.884;2024-03-23T01:22:34;95420;;;8.9;68.5
68891;BME280;55932;48.702;8.884;2024-03-23T01:25:05;95420;;;9;68.5
68891;BME280;55932;48.702;8.884;2024-03-23T01:27:36;95420;;;8.8;68.5
68891;BME280;55932;48.702;8.884;2024-03-23T01:30:13;95420;;;8.7;69
68891;BME280;55932;48.702;8.884;2024-03-23T01:32:44;95410;;;8.8;68.5
68891;BME280;55932;48.702;8.884;2024-03-23T01:35:08;95410;;;8.8;68.5
68891;BME280;55932;48.702;8.884;2024-03-23T01:37:46;95400;;;8.8;68.5
68891;BME280;55932;48.702;8.884;2024-03-23T01:42:55;95400;;;8.9;69
68891;BME280;55932;48.702;8.884;2024-03-23T01:45:17;95400;;;9;68.5
68891;BME280;55932;48.702;8.884;2024-03-23T01:47:41;95390;;;8.8;69
68891;BME280;55932;48.702;8.884;2024-03-23T01:50:13;95380;;;8.8;69
68891;BME280;55932;48.702;8.884;2024-03-23T01:52:43;95380;;;8.7;69
68891;BME280;55932;48.702;8.884;2024-03-23T01:55:14;95380;;;8.6;69
68891;BME280;55932;48.702;8.884;2024-03-23T01:57:45;95380;;;8.4;69.5
68891;BME280;55932;48.702;8.884;2024-03-23T02:00:23;95370;;;8.4;69.5
68891;BME280;55932;48.702;8.884;2024-03-23T02:02:47;95370;;;8.4;69.5
68891;BME280;55932;48.702;8.884;2024-03-23T02:05:25;95370;;;8.3;69.5
68891;BME280;55932;48.702;8.884;2024-03-23T02:07:56;95360;;;8.2;69.5
68891;BME280;55932;48.702;8.884;2024-03-23T02:10:20;95350;;;8.2;69.5
68891;BME280;55932;48.702;8.884;2024-03-23T02:12:51;95350;;;7.9;70
68891;BME280;55932;48.702;8.884;2024-03-23T02:15:22;95360;;;7.7;70
68891;BME280;55932;48.702;8.884;2024-03-23T02:20:24;95350;;;7.7;70.5
68891;BME280;55932;48.702;8.884;2024-03-23T02:22:55;95350;;;7.7;70
68891;BME280;55932;48.702;8.884;2024-03-23T02:25:26;95350;;;7.7;70
68891;BME280;55932;48.702;8.884;2024-03-23T02:35:22;95330;;;7.7;70
68891;BME280;55932;48.702;8.884;2024-03-23T02:37:53;95340;;;7.7;70
68891;BME280;55932;48.702;8.884;2024-03-23T02:40:24;95340;;;7.7;70
68891;BME280;55932;48.702;8.884;2024-03-23T02:42:55;95330;;;7.6;70
68891;BME280;55932;48.702;8.884;2024-03-23T02:45:25;95330;;;7.3;70.5
68891;BME280;55932;48.702;8.884;2024-03-23T02:47:56;95330;;;7;70.5
68891;BME280;55932;48.702;8.884;2024-03-23T02:50:27;95320;;;6.8;70.5
68891;BME280;55932;48.702;8.884;2024-03-23T02:52:58;95320;;;6.7;70.5
68891;BME280;55932;48.702;8.884;2024-03-23T02:55:28;95320;;;6.8;70.5
68891;BME280;55932;48.702;8.884;2024-03-23T02:57:59;95320;;;7.4;70
68891;BME280;55932;48.702;8.884;2024-03-23T03:08:08;95300;;;8.3;69
68891;BME280;55932;48.702;8.884;2024-03-23T03:10:39;95300;;;8.5;69
68891;BME280;55932;48.702;8.884;2024-03-23T03:13:10;95300;;;8.6;69
68891;BME280;55932;48.702;8.884;2024-03-23T03:15:34;95290;;;8.6;69
68891;BME280;55932;48.702;8.884;2024-03-23T03:18:05;95280;;;8.8;69
68891;BME280;55932;48.702;8.884;2024-03-23T03:20:38;95280;;;8.9;68.5
68891;BME280;55932;48.702;8.884;2024-03-23T03:23:06;95280;;;9;68.5
68891;BME280;55932;48.702;8.884;2024-03-23T03:35:46;95260;;;9.1;69
68891;BME280;55932;48.702;8.884;2024-03-23T03:38:18;95260;;;9.2;68.5
68891;BME280;55932;48.702;8.884;2024-03-23T03:46:08;95240;;;9.6;68.5
68891;BME280;55932;48.702;8.884;2024-03-23T03:48:25;95220;;;9.7;68
68891;BME280;55932;48.702;8.884;2024-03-23T03:50:57;95220;;;9.8;68
68891;BME280;55932;48.702;8.884;2024-03-23T03:53:26;95210;;;9.8;68
68891;BME280;55932;48.702;8.884;2024-03-23T03:55:56;95210;;;9.9;68
68891;BME280;55932;48.702;8.884;2024-03-23T04:03:22;95190;;;9.7;68.5
68891;BME280;55932;48.702;8.884;2024-03-23T04:08:31;95170;;;10;68.5
68891;BME280;55932;48.702;8.884;2024-03-23T04:11:01;95180;;;10.2;68
68891;BME280;55932;48.702;8.884;2024-03-23T04:13:25;95170;;;10.3;68
68891;BME280;55932;48.702;8.884;2024-03-23T04:15:56;95180;;;10.3;68
68891;BME280;55932;48.702;8.884;2024-03-23T04:18:27;95190;;;10.1;68
68891;BME280;55932;48.702;8.884;2024-03-23T04:20:58;95200;;;10.1;68.5
68891;BME280;55932;48.702;8.884;2024-03-23T04:23:28;95200;;;10;68.5
68891;BME280;55932;48.702;8.884;2024-03-23T04:26:02;95200;;;10;68.5
68891;BME280;55932;48.702;8.884;2024-03-23T04:28:43;95190;;;10.3;68
68891;BME280;55932;48.702;8.884;2024-03-23T04:31:07;95190;;;10.3;68
68891;BME280;55932;48.702;8.884;2024-03-23T04:36:01;95180;;;10.4;68
68891;BME280;55932;48.702;8.884;2024-03-23T04:38:32;95200;;;10.6;67.5
68891;BME280;55932;48.702;8.884;2024-03-23T04:46:10;95220;;;9.6;68.5
68891;BME280;55932;48.702;8.884;2024-03-23T04:48:40;95220;;;9.3;68.5
68891;BME280;55932;48.702;8.884;2024-03-23T04:51:10;95230;;;9.2;68.5
68891;BME280;55932;48.702;8.884;2024-03-23T04:53:44;95230;;;9.1;68.5
68891;BME280;55932;48.702;8.884;2024-03-23T04:56:11;95240;;;9;68.5
68891;BME280;55932;48.702;8.884;2024-03-23T04:58:35;95250;;;9;68.5
68891;BME280;55932;48.702;8.884;2024-03-23T05:01:06;95250;;;9;68.5
68891;BME280;55932;48.702;8.884;2024-03-23T05:03:30;95260;;;9;68.5
68891;BME280;55932;48.702;8.884;2024-03-23T05:06:01;95250;;;9;68.5
68891;BME280;55932;48.702;8.884;2024-03-23T05:08:31;95260;;;8.9;68.5
68891;BME280;55932;48.702;8.884;2024-03-23T05:11:03;95260;;;8.8;68.5
68891;BME280;55932;48.702;8.884;2024-03-23T05:13:33;95270;;;8.7;68.5
68891;BME280;55932;48.702;8.884;2024-03-23T05:21:06;95250;;;8.3;69
68891;BME280;55932;48.702;8.884;2024-03-23T05:26:19;95260;;;8.2;69
68891;BME280;55932;48.702;8.884;2024-03-23T05:28:50;95260;;;8.2;69
68891;BME280;55932;48.702;8.884;2024-03-23T05:31:27;95270;;;8.1;69
68891;BME280;55932;48.702;8.884;2024-03-23T05:36:14;95290;;;8.1;69
68891;BME280;55932;48.702;8.884;2024-03-23T05:38:44;95300;;;8.1;69
68891;BME280;55932;48.702;8.884;2024-03-23T05:41:15;95310;;;8;69
68891;BME280;55932;48.702;8.884;2024-03-23T05:43:53;95310;;;8;69
68891;BME280;55932;48.702;8.884;2024-03-23T05:46:24;95320;;;8;69
68891;BME280;55932;48.702;8.884;2024-03-23T05:49:01;95320;;;7.9;69
68891;BME280;55932;48.702;8.884;2024-03-23T05:53:49;95320;;;7.8;69
68891;BME280;55932;48.702;8.884;2024-03-23T05:56:20;95320;;;7.6;69
68891;BME280;55932;48.702;8.884;2024-03-23T06:01:15;95340;;;7.4;69
68891;BME280;55932;48.702;8.884;2024-03-23T06:03:45;95330;;;7.3;69
68891;BME280;55932;48.702;8.884;2024-03-23T06:06:16;95350;;;7.3;69
68891;BME280;55932;48.702;8.884;2024-03-23T06:13:49;95340;;;7.4;69
68891;BME280;55932;48.702;8.884;2024-03-23T06:16:19;95350;;;7.4;69
68891;BME280;55932;48.702;8.884;2024-03-23T06:18:50;95350;;;7.3;69
68891;BME280;55932;48.702;8.884;2024-03-23T06:21:21;95370;;;7.4;69
68891;BME280;55932;48.702;8.884;2024-03-23T06:23:52;95370;;;7.4;69
68891;BME280;55932;48.702;8.884;2024-03-23T06:28:59;95380;;;7.4;69
68891;BME280;55932;48.702;8.884;2024-03-23T06:31:37;95390;;;7.3;69.5
68891;BME280;55932;48.702;8.884;2024-03-23T06:34:01;95390;;;7.4;69
68891;BME280;55932;48.702;8.884;2024-03-23T06:36:39;95400;;;7.5;69
68891;BME280;55932;48.702;8.884;2024-03-23T06:39:09;95400;;;7.6;69
68891;BME280;55932;48.702;8.884;2024-03-23T06:41:40;95410;;;7.5;69
68891;BME280;55932;48.702;8.884;2024-03-23T06:46:35;95420;;;7.5;69
68891;BME280;55932;48.702;8.884;2024-03-23T06:49:06;95420;;;7.6;69
68891;BME280;55932;48.702;8.884;2024-03-23T06:54:14;95430;;;7.6;69
68891;BME280;55932;48.702;8.884;2024-03-23T06:56:51;95450;;;7.6;69.5
68891;BME280;55932;48.702;8.884;2024-03-23T07:01:39;95450;;;7.2;69.5
68891;BME280;55932;48.702;8.884;2024-03-23T07:04:10;95460;;;7.1;69.5
68891;BME280;55932;48.702;8.884;2024-03-23T07:06:42;95470;;;7.2;69.5
68891;BME280;55932;48.702;8.884;2024-03-23T07:09:18;95460;;;7.2;69.5
68891;BME280;55932;48.702;8.884;2024-03-23T07:11:56;95470;;;7.2;69.5
68891;BME280;55932;48.702;8.884;2024-03-23T07:14:32;95480;;;7.1;69.5
68891;BME280;55932;48.702;8.884;2024-03-23T07:16:52;95490;;;7.2;69.5
68891;BME280;55932;48.702;8.884;2024-03-23T07:21:43;95480;;;7;69.5
68891;BME280;55932;48.702;8.884;2024-03-23T07:24:14;95490;;;7;69.5
68891;BME280;55932;48.702;8.884;2024-03-23T07:26:45;95500;;;6.9;69.5
68891;BME280;55932;48.702;8.884;2024-03-23T07:29:16;95510;;;6.9;69.5
68891;BME280;55932;48.702;8.884;2024-03-23T07:31:47;95520;;;6.9;69.5
68891;BME280;55932;48.702;8.884;2024-03-23T07:34:24;95520;;;6.9;69.5
68891;BME280;55932;48.702;8.884;2024-03-23T07:36:55;95520;;;6.9;69.5
68891;BME280;55932;48.702;8.884;2024-03-23T07:41:51;95510;;;6.9;69.5
68891;BME280;55932;48.702;8.884;2024-03-23T07:46:59;95530;;;6.8;69.5
68891;BME280;55932;48.702;8.884;2024-03-23T07:49:28;95530;;;6.8;69.5
68891;BME280;55932;48.702;8.884;2024-03-23T07:51:59;95540;;;6.8;69.5
68891;BME280;55932;48.702;8.884;2024-03-23T07:54:29;95540;;;6.8;69
68891;BME280;55932;48.702;8.884;2024-03-23T07:56:53;95550;;;7;69
68891;BME280;55932;48.702;8.884;2024-03-23T07:59:24;95580;;;7.1;69
68891;BME280;55932;48.702;8.884;2024-03-23T08:02:01;95580;;;7;69
68891;BME280;55932;48.702;8.884;2024-03-23T08:04:32;95590;;;7;69
68891;BME280;55932;48.702;8.884;2024-03-23T08:09:33;95600;;;7.3;69
68891;BME280;55932;48.702;8.884;2024-03-23T08:12:04;95590;;;7.5;69
68891;BME280;55932;48.702;8.884;2024-03-23T08:17:03;95610;;;8.5;69
68891;BME280;55932;48.702;8.884;2024-03-23T08:19:29;95620;;;8.7;69
68891;BME280;55932;48.702;8.884;2024-03-23T08:22:00;95630;;;8.7;68.5
68891;BME280;55932;48.702;8.884;2024-03-23T08:24:31;95630;;;8.5;68.5
68891;BME280;55932;48.702;8.884;2024-03-23T08:27:08;95650;;;8.3;68.5
68891;BME280;55932;48.702;8.884;2024-03-23T08:29:38;95660;;;8.1;69
68891;BME280;55932;48.702;8.884;2024-03-23T08:32:15;95660;;;7.9;69
68891;BME280;55932;48.702;8.884;2024-03-23T08:34:32;95670;;;7.8;69
68891;BME280;55932;48.702;8.884;2024-03-23T08:37:03;95670;;;7.9;69
68891;BME280;55932;48.702;8.884;2024-03-23T08:41:59;95660;;;7.9;69
68891;BME280;55932;48.702;8.884;2024-03-23T08:44:29;95660;;;7.8;69
68891;BME280;55932;48.702;8.884;2024-03-23T08:47:00;95680;;;8;69
68891;BME280;55932;48.702;8.884;2024-03-23T08:54:32;95690;;;7.4;70
68891;BME280;55932;48.702;8.884;2024-03-23T08:57:03;95710;;;6.8;70.5
68891;BME280;55932;48.702;8.884;2024-03-23T08:59:41;95710;;;6.5;70.5
68891;BME280;55932;48.702;8.884;2024-03-23T09:02:11;95720;;;6.8;70
68891;BME280;55932;48.702;8.884;2024-03-23T09:04:43;95720;;;7.4;70.5
68891;BME280;55932;48.702;8.884;2024-03-23T09:07:06;95720;;;8.2;71.5
68891;BME280;55932;48.702;8.884;2024-03-23T09:09:38;95730;;;9.2;71.5
68891;BME280;55932;48.702;8.884;2024-03-23T09:12:08;95720;;;10.4;71
68891;BME280;55932;48.702;8.884;2024-03-23T09:14:38;95740;;;9.6;70
68891;BME280;55932;48.702;8.884;2024-03-23T09:22:11;95720;;;9.1;70
68891;BME280;55932;48.702;8.884;2024-03-23T09:24:41;95720;;;9.5;71
68891;BME280;55932;48.702;8.884;2024-03-23T09:29:49;95720;;;12.2;70.5
68891;BME280;55932;48.702;8.884;2024-03-23T09:32:20;95720;;;12.8;69.5
68891;BME280;55932;48.702;8.884;2024-03-23T09:34:51;95710;;;12.1;69
68891;BME280;55932;48.702;8.884;2024-03-23T09:37:22;95730;;;10.9;69
68891;BME280;55932;48.702;8.884;2024-03-23T09:39:53;95730;;;10.2;70.5
68891;BME280;55932;48.702;8.884;2024-03-23T09:42:17;95720;;;10;70.5
68891;BME280;55932;48.702;8.884;2024-03-23T09:52:20;95730;;;13.6;69.5
68891;BME280;55932;48.702;8.884;2024-03-23T09:54:51;95720;;;14;69
68891;BME280;55932;48.702;8.884;2024-03-23T09:57:22;95720;;;13.4;68.5
68891;BME280;55932;48.702;8.884;2024-03-23T10:02:37;95730;;;12.2;69
68891;BME280;55932;48.702;8.884;2024-03-23T10:05:17;95720;;;10.7;70
68891;BME280;55932;48.702;8.884;2024-03-23T10:09:59;95710;;;10.3;71
68891;BME280;55932;48.702;8.884;2024-03-23T10:12:30;95710;;;9.9;71
68891;BME280;55932;48.702;8.884;2024-03-23T10:15:01;95720;;;9.3;71
68891;BME280;55932;48.702;8.884;2024-03-23T10:17:39;95720;;;9.3;71
68891;BME280;55932;48.702;8.884;2024-03-23T10:19:57;95720;;;9.6;71
68891;BME280;55932;48.702;8.884;2024-03-23T10:22:31;95720;;;9.5;70.5
68891;BME280;55932;48.702;8.884;2024-03-23T10:25:06;95720;;;9.1;70.5
68891;BME280;55932;48.702;8.884;2024-03-23T10:27:29;95720;;;9;70
68891;BME280;55932;48.702;8.884;2024-03-23T10:30:07;95730;;;9;70.5
68891;BME280;55932;48.702;8.884;2024-03-23T10:32:30;95730;;;8.5;71
68891;BME280;55932;48.702;8.884;2024-03-23T10:35:17;95740;;;7.9;71
68891;BME280;55932;48.702;8.884;2024-03-23T10:37:33;95770;;;7.2;72
68891;BME280;55932;48.702;8.884;2024-03-23T10:42:33;95790;;;4.9;72.5
68891;BME280;55932;48.702;8.884;2024-03-23T10:47:36;95840;;;4;72.5
68891;BME280;55932;48.702;8.884;2024-03-23T10:50:06;95800;;;3.7;72.5
68891;BME280;55932;48.702;8.884;2024-03-23T10:52:36;95770;;;4.3;72
68891;BME280;55932;48.702;8.884;2024-03-23T10:55:07;95770;;;4.6;71.5
68891;BME280;55932;48.702;8.884;2024-03-23T10:57:43;95770;;;5.2;71
68891;BME280;55932;48.702;8.884;2024-03-23T11:05:28;95760;;;10.5;69.5
68891;BME280;55932;48.702;8.884;2024-03-23T11:07:41;95770;;;9.7;69
68891;BME280;55932;48.702;8.884;2024-03-23T11:12:49;95770;;;9.4;70.5
68891;BME280;55932;48.702;8.884;2024-03-23T11:15:20;95770;;;9.1;70.5
68891;BME280;55932;48.702;8.884;2024-03-23T11:18:06;95770;;;9.6;71
68891;BME280;55932;48.702;8.884;2024-03-23T11:20:15;95770;;;9.3;70.5
68891;BME280;55932;48.702;8.884;2024-03-23T11:25:20;95770;;;9.6;71
68891;BME280;55932;48.702;8.884;2024-03-23T11:32:49;95750;;;12.4;67
68891;BME280;55932;48.702;8.884;2024-03-23T11:35:35;95750;;;11.7;68
68891;BME280;55932;48.702;8.884;2024-03-23T11:38:02;95760;;;11;69.5
68891;BME280;55932;48.702;8.884;2024-03-23T11:40:21;95760;;;10.6;69.5
68891;BME280;55932;48.702;8.884;2024-03-23T11:42:55;95760;;;10.3;70
68891;BME280;55932;48.702;8.884;2024-03-23T11:45:22;95760;;;10.6;70
68891;BME280;55932;48.702;8.884;2024-03-23T11:50:38;95750;;;12.2;68.5
68891;BME280;55932;48.702;8.884;2024-03-23T11:53:06;95740;;;11.5;69
68891;BME280;55932;48.702;8.884;2024-03-23T12:00:27;95730;;;11.5;69
68891;BME280;55932;48.702;8.884;2024-03-23T12:03:01;95730;;;10.4;70.5
68891;BME280;55932;48.702;8.884;2024-03-23T12:05:35;95740;;;10.9;70.5
68891;BME280;55932;48.702;8.884;2024-03-23T12:08:37;95730;;;11.3;70.5
68891;BME280;55932;48.702;8.884;2024-03-23T12:13:01;95720;;;14.4;67
68891;BME280;55932;48.702;8.884;2024-03-23T12:15:31;95720;;;13.6;68
68891;BME280;55932;48.702;8.884;2024-03-23T12:18:06;95730;;;13.5;68
68891;BME280;55932;48.702;8.884;2024-03-23T12:28:06;95720;;;11.4;69.5
68891;BME280;55932;48.702;8.884;2024-03-23T12:30:38;95720;;;10.7;70.5
68891;BME280;55932;48.702;8.884;2024-03-23T12:33:07;95720;;;10.5;70.5
68891;BME280;55932;48.702;8.884;2024-03-23T12:35:51;95730;;;10.4;70.5
68891;BME280;55932;48.702;8.884;2024-03-23T12:40:52;95730;;;9.5;71
68891;BME280;55932;48.702;8.884;2024-03-23T12:43:21;95740;;;9.1;71.5
68891;BME280;55932;48.702;8.884;2024-03-23T12:45:52;95730;;;9.2;71
68891;BME280;55932;48.702;8.884;2024-03-23T12:48:22;95730;;;9.9;70
68891;BME280;55932;48.702;8.884;2024-03-23T12:50:54;95730;;;10.7;69.5
68891;BME280;55932;48.702;8.884;2024-03-23T12:55:47;95730;;;10.9;69
68891;BME280;55932;48.702;8.884;2024-03-23T12:58:21;95730;;;11.4;68.5
68891;BME280;55932;48.702;8.884;2024-03-23T13:00:48;95710;;;10.9;69
68891;BME280;55932;48.702;8.884;2024-03-23T13:03:19;95730;;;10.4;69.5
68891;BME280;55932;48.702;8.884;2024-03-23T13:05:54;95740;;;9.9;69.5
68891;BME280;55932;48.702;8.884;2024-03-23T13:08:21;95730;;;9.3;70.5
68891;BME280;55932;48.702;8.884;2024-03-23T13:10:59;95750;;;8.8;70.5
68891;BME280;55932;48.702;8.884;2024-03-23T13:15:54;95730;;;6.9;72
68891;BME280;55932;48.702;8.884;2024-03-23T13:18:29;95720;;;7;72
68891;BME280;55932;48.702;8.884;2024-03-23T13:20:56;95700;;;9.4;69.5
68891;BME280;55932;48.702;8.884;2024-03-23T13:23:27;95690;;;12;67
68891;BME280;55932;48.702;8.884;2024-03-23T13:25:58;95690;;;13.3;65.5
68891;BME280;55932;48.702;8.884;2024-03-23T13:28:29;95670;;;13.6;65
68891;BME280;55932;48.702;8.884;2024-03-23T13:31:00;95670;;;13.8;65
68891;BME280;55932;48.702;8.884;2024-03-23T13:33:31;95670;;;14.1;64.5
68891;BME280;55932;48.702;8.884;2024-03-23T13:36:02;95680;;;13.9;65
68891;BME280;55932;48.702;8.884;2024-03-23T13:38:39;95690;;;13.6;65
68891;BME280;55932;48.702;8.884;2024-03-23T13:41:10;95690;;;13.3;66
68891;BME280;55932;48.702;8.884;2024-03-23T13:43:35;95690;;;11.6;68.5
68891;BME280;55932;48.702;8.884;2024-03-23T13:46:06;95680;;;10.1;70
68891;BME280;55932;48.702;8.884;2024-03-23T13:51:07;95710;;;8.4;71.5
68891;BME280;55932;48.702;8.884;2024-03-23T13:53:38;95710;;;7.8;71.5
68891;BME280;55932;48.702;8.884;2024-03-23T13:56:09;95730;;;7.3;72
68891;BME280;55932;48.702;8.884;2024-03-23T13:58:40;95730;;;6.7;72
68891;BME280;55932;48.702;8.884;2024-03-23T14:01:11;95730;;;6.2;72
68891;BME280;55932;48.702;8.884;2024-03-23T14:03:42;95730;;;6.8;71
68891;BME280;55932;48.702;8.884;2024-03-23T14:06:13;95710;;;8.4;69.5
68891;BME280;55932;48.702;8.884;2024-03-23T14:08:51;95720;;;8.8;69
68891;BME280;55932;48.702;8.884;2024-03-23T14:13:46;95710;;;7.8;70
68891;BME280;55932;48.702;8.884;2024-03-23T14:16:17;95710;;;7.4;70.5
68891;BME280;55932;48.702;8.884;2024-03-23T14:18:49;95700;;;7;71
68891;BME280;55932;48.702;8.884;2024-03-23T14:21:19;95690;;;7.8;70
68891;BME280;55932;48.702;8.884;2024-03-23T14:23:50;95670;;;10.8;66
68891;BME280;55932;48.702;8.884;2024-03-23T14:26:21;95670;;;11.9;64.5
68891;BME280;55932;48.702;8.884;2024-03-23T14:28:53;95670;;;13.2;63
68891;BME280;55932;48.702;8.884;2024-03-23T14:31:23;95670;;;12.7;63.5
68891;BME280;55932;48.702;8.884;2024-03-23T14:33:54;95680;;;9.9;67
68891;BME280;55932;48.702;8.884;2024-03-23T14:36:36;95680;;;8.4;69.5
68891;BME280;55932;48.702;8.884;2024-03-23T14:44:17;95700;;;7.5;71
68891;BME280;55932;48.702;8.884;2024-03-23T14:49:04;95730;;;6.7;71
68891;BME280;55932;48.702;8.884;2024-03-23T14:51:34;95750;;;5.7;71.5
68891;BME280;55932;48.702;8.884;2024-03-23T14:56:28;95750;;;4.7;72
68891;BME280;55932;48.702;8.884;2024-03-23T14:58:59;95730;;;5.4;71
68891;BME280;55932;48.702;8.884;2024-03-23T15:01:30;95720;;;6.1;70
68891;BME280;55932;48.702;8.884;2024-03-23T15:04:08;95710;;;6.8;69
68891;BME280;55932;48.702;8.884;2024-03-23T15:06:39;95700;;;7.1;68.5
68891;BME280;55932;48.702;8.884;2024-03-23T15:14:11;95680;;;8.1;68.5
68891;BME280;55932;48.702;8.884;2024-03-23T15:16:41;95690;;;7.7;69.5
68891;BME280;55932;48.702;8.884;2024-03-23T15:21:35;95680;;;7.9;70
68891;BME280;55932;48.702;8.884;2024-03-23T15:24:07;95670;;;8;70
68891;BME280;55932;48.702;8.884;2024-03-23T15:26:38;95670;;;7.4;70.5
68891;BME280;55932;48.702;8.884;2024-03-23T15:29:15;95670;;;6.5;71.5
68891;BME280;55932;48.702;8.884;2024-03-23T15:34:23;95680;;;6;71.5
68891;BME280;55932;48.702;8.884;2024-03-23T15:39:17;95690;;;5.8;72
68891;BME280;55932;48.702;8.884;2024-03-23T15:41:46;95680;;;5.6;72
68891;BME280;55932;48.702;8.884;2024-03-23T15:44:17;95680;;;5.7;71.5
68891;BME280;55932;48.702;8.884;2024-03-23T15:46:47;95700;;;5.5;71.5
68891;BME280;55932;48.702;8.884;2024-03-23T15:49:10;95690;;;5.4;71.5
68891;BME280;55932;48.702;8.884;2024-03-23T15:51:42;95680;;;5.9;70.5
68891;BME280;55932;48.702;8.884;2024-03-23T15:54:12;95670;;;6.3;70
68891;BME280;55932;48.702;8.884;2024-03-23T16:04:22;95650;;;5.3;71
68891;BME280;55932;48.702;8.884;2024-03-23T16:06:52;95650;;;4.8;72
68891;BME280;55932;48.702;8.884;2024-03-23T16:11:51;95630;;;5.8;70
68891;BME280;55932;48.702;8.884;2024-03-23T16:14:17;95640;;;5.5;70.5
68891;BME280;55932;48.702;8.884;2024-03-23T16:26:45;95660;;;6.5;69.5
68891;BME280;55932;48.702;8.884;2024-03-23T16:29:17;95650;;;7.5;68
68891;BME280;55932;48.702;8.884;2024-03-23T16:31:46;95650;;;7.6;68
68891;BME280;55932;48.702;8.884;2024-03-23T16:34:17;95640;;;7;69
68891;BME280;55932;48.702;8.884;2024-03-23T16:36:54;95660;;;6.7;69.5
68891;BME280;55932;48.702;8.884;2024-03-23T16:39:25;95650;;;7.1;68.5
68891;BME280;55932;48.702;8.884;2024-03-23T16:41:56;95640;;;7.2;68
68891;BME280;55932;48.702;8.884;2024-03-23T16:44:20;95640;;;6.2;70
68891;BME280;55932;48.702;8.884;2024-03-23T16:46:51;95650;;;5.6;70.5
68891;BME280;55932;48.702;8.884;2024-03-23T16:54:23;95640;;;5.3;71
68891;BME280;55932;48.702;8.884;2024-03-23T16:56:54;95630;;;4.9;71.5
68891;BME280;55932;48.702;8.884;2024-03-23T16:59:25;95620;;;4.5;71.5
68891;BME280;55932;48.702;8.884;2024-03-23T17:04:39;95640;;;4.1;72
68891;BME280;55932;48.702;8.884;2024-03-23T17:07:10;95640;;;4.1;71.5
68891;BME280;55932;48.702;8.884;2024-03-23T17:09:33;95650;;;4;71.5
68891;BME280;55932;48.702;8.884;2024-03-23T17:12:04;95650;;;4;71.5
68891;BME280;55932;48.702;8.884;2024-03-23T17:14:35;95660;;;4.1;71.5
68891;BME280;55932;48.702;8.884;2024-03-23T17:17:06;95660;;;4.3;71.5
68891;BME280;55932;48.702;8.884;2024-03-23T17:19:43;95660;;;4.4;71.5
68891;BME280;55932;48.702;8.884;2024-03-23T17:22:13;95660;;;4.6;71.5
68891;BME280;55932;48.702;8.884;2024-03-23T17:27:07;95700;;;4.6;71.5
68891;BME280;55932;48.702;8.884;2024-03-23T17:29:38;95750;;;4.4;71.5
68891;BME280;55932;48.702;8.884;2024-03-23T17:32:09;95740;;;3.7;71.5
68891;BME280;55932;48.702;8.884;2024-03-23T17:34:33;95750;;;3.3;71.5
68891;BME280;55932;48.702;8.884;2024-03-23T17:37:03;95740;;;2.9;72
68891;BME280;55932;48.702;8.884;2024-03-23T17:39:34;95730;;;2.8;72
68891;BME280;55932;48.702;8.884;2024-03-23T17:42:05;95720;;;2.7;72
68891;BME280;55932;48.702;8.884;2024-03-23T17:47:06;95700;;;2.6;72
68891;BME280;55932;48.702;8.884;2024-03-23T17:57:28;95680;;;2.3;72
68891;BME280;55932;48.702;8.884;2024-03-23T18:02:30;95680;;;2.2;71.5
68891;BME280;55932;48.702;8.884;2024-03-23T18:04:52;95690;;;2.2;71.5
68891;BME280;55932;48.702;8.884;2024-03-23T18:07:23;95690;;;2.1;71.5
68891;BME280;55932;48.702;8.884;2024-03-23T18:09:53;95690;;;2;71.5
68891;BME280;55932;48.702;8.884;2024-03-23T18:12:23;95690;;;2;72
68891;BME280;55932;48.702;8.884;2024-03-23T18:14:54;95690;;;2.1;71.5
68891;BME280;55932;48.702;8.884;2024-03-23T18:17:24;95690;;;2.2;71.5
68891;BME280;55932;48.702;8.884;2024-03-23T18:19:55;95690;;;2.4;71.5
68891;BME280;55932;48.702;8.884;2024-03-23T18:22:31;95680;;;2.5;71.5
68891;BME280;55932;48.702;8.884;2024-03-23T18:27:18;95690;;;2.7;71
68891;BME280;55932;48.702;8.884;2024-03-23T18:32:20;95690;;;2.7;71
68891;BME280;55932;48.702;8.884;2024-03-23T18:34:51;95680;;;2.6;71
68891;BME280;55932;48.702;8.884;2024-03-23T18:37:22;95670;;;2.6;71.5
68891;BME280;55932;48.702;8.884;2024-03-23T18:39:53;95670;;;2.6;71.5
68891;BME280;55932;48.702;8.884;2024-03-23T18:42:24;95670;;;2.6;71.5
68891;BME280;55932;48.702;8.884;2024-03-23T18:45:02;95670;;;2.6;71.5
68891;BME280;55932;48.702;8.884;2024-03-23T18:47:33;95660;;;2.6;71.5
68891;BME280;55932;48.702;8.884;2024-03-23T18:52:28;95640;;;2.6;71.5
68891;BME280;55932;48.702;8.884;2024-03-23T18:54:59;95650;;;2.7;71.5
68891;BME280;55932;48.702;8.884;2024-03-23T18:57:30;95640;;;2.7;71.5
68891;BME280;55932;48.702;8.884;2024-03-23T19:00:01;95640;;;2.7;71.5
68891;BME280;55932;48.702;8.884;2024-03-23T19:02:32;95640;;;2.7;71.5
68891;BME280;55932;48.702;8.884;2024-03-23T19:05:03;95640;;;2.7;71.5
68891;BME280;55932;48.702;8.884;2024-03-23T19:07:34;95650;;;2.7;71.5
68891;BME280;55932;48.702;8.884;2024-03-23T19:10:05;95650;;;2.7;71.5
68891;BME280;55932;48.702;8.884;2024-03-23T19:12:36;95660;;;2.7;71.5
68891;BME280;55932;48.702;8.884;2024-03-23T19:17:44;95670;;;2.5;71.5
68891;BME280;55932;48.702;8.884;2024-03-23T19:22:40;95650;;;2.2;71.5
68891;BME280;55932;48.702;8.884;2024-03-23T19:25:11;95640;;;2.1;71.5
68891;BME280;55932;48.702;8.884;2024-03-23T19:27:42;95650;;;2.1;72
68891;BME280;55932;48.702;8.884;2024-03-23T19:30:13;95650;;;2;72
68891;BME280;55932;48.702;8.884;2024-03-23T19:32:46;95660;;;2;72
68891;BME280;55932;48.702;8.884;2024-03-23T19:37:45;95660;;;2;72
68891;BME280;55932;48.702;8.884;2024-03-23T19:40:16;95660;;;1.8;72
68891;BME280;55932;48.702;8.884;2024-03-23T19:42:47;95650;;;1.8;72
68891;BME280;55932;48.702;8.884;2024-03-23T19:47:42;95650;;;1.8;72
68891;BME280;55932;48.702;8.884;2024-03-23T19:50:13;95650;;;1.7;72
68891;BME280;55932;48.702;8.884;2024-03-23T19:52:44;95650;;;1.6;72
68891;BME280;55932;48.702;8.884;2024-03-23T19:55:15;95640;;;1.7;72